createdAt,value
2017-05-12T00:00:38.354Z,99224
2017-05-12T00:03:07.421Z,99223
2017-05-12T00:05:36.442Z,99219
2017-05-12T00:11:07.094Z,99224
2017-05-12T00:13:39.874Z,99223
2017-05-12T00:16:08.970Z,99217
2017-05-12T00:18:37.953Z,99216
2017-05-12T00:21:06.937Z,99214
2017-05-12T00:23:39.857Z,99221
2017-05-12T00:26:08.940Z,99217
2017-05-12T00:28:37.921Z,99212
2017-05-12T00:31:07.013Z,99219
2017-05-12T00:33:35.987Z,99217
2017-05-12T00:36:05.010Z,99218
2017-05-12T00:38:39.803Z,99211
2017-05-12T00:41:09.537Z,99209
2017-05-12T00:43:38.505Z,99215
2017-05-12T00:46:08.441Z,99216
2017-05-12T00:48:37.443Z,99218
2017-05-12T00:51:06.439Z,99219
2017-05-12T00:53:35.534Z,99212
2017-05-12T00:56:04.613Z,99215
2017-05-12T00:58:33.585Z,99210
2017-05-12T01:01:03.336Z,99208
2017-05-12T01:03:39.340Z,99210
2017-05-12T01:06:09.097Z,99217
2017-05-12T01:08:38.181Z,99219
2017-05-12T01:11:07.158Z,99217
2017-05-12T01:13:36.230Z,99216
2017-05-12T01:16:05.949Z,99215
2017-05-12T01:18:39.332Z,99216
2017-05-12T01:21:09.077Z,99215
2017-05-12T01:23:38.078Z,99216
2017-05-12T01:26:07.169Z,99218
2017-05-12T01:28:36.132Z,99220
2017-05-12T01:31:05.920Z,99214
2017-05-12T01:33:38.445Z,99220
2017-05-12T01:36:07.587Z,99217
2017-05-12T01:38:36.641Z,99218
2017-05-12T01:41:05.731Z,99217
2017-05-12T01:43:34.722Z,99214
2017-05-12T01:49:05.368Z,99220
2017-05-12T01:51:34.374Z,99201
2017-05-12T01:54:03.469Z,99200
2017-05-12T01:56:32.481Z,99204
2017-05-12T01:59:01.554Z,99195
2017-05-12T02:01:38.834Z,99201
2017-05-12T02:04:07.812Z,99197
2017-05-12T02:06:36.789Z,99196
2017-05-12T02:09:06.600Z,99208
2017-05-12T02:11:36.308Z,99187
2017-05-12T02:14:36.495Z,99196
2017-05-12T02:17:05.562Z,99192
2017-05-12T02:19:34.534Z,99187
2017-05-12T02:22:03.640Z,99184
2017-05-12T02:24:33.353Z,99176
2017-05-12T02:27:02.330Z,99175
2017-05-12T02:29:38.302Z,99173
2017-05-12T02:32:07.298Z,99168
2017-05-12T02:34:36.287Z,99161
2017-05-12T02:37:05.383Z,99164
2017-05-12T02:39:34.357Z,99161
2017-05-12T02:45:04.519Z,99164
2017-05-12T02:47:33.489Z,99155
2017-05-12T02:50:02.461Z,99153
2017-05-12T02:52:32.305Z,99157
2017-05-12T02:55:01.309Z,99147
2017-05-12T02:57:38.790Z,99148
2017-05-12T03:00:07.790Z,99158
2017-05-12T03:02:36.770Z,99165
2017-05-12T03:05:06.489Z,99156
2017-05-12T03:07:35.481Z,99155
2017-05-12T03:10:04.469Z,99157
2017-05-12T03:12:33.578Z,99157
2017-05-12T03:15:02.567Z,99162
2017-05-12T03:17:31.649Z,99158
2017-05-12T03:20:01.257Z,99160
2017-05-12T03:22:30.259Z,99163
2017-05-12T03:24:59.250Z,99158
2017-05-12T03:27:28.341Z,99159
2017-05-12T03:29:57.339Z,99161
2017-05-12T03:32:26.321Z,99164
2017-05-12T03:34:55.424Z,99163
2017-05-12T03:37:24.405Z,99160
2017-05-12T03:39:53.381Z,99162
2017-05-12T03:42:22.406Z,99160
2017-05-12T03:44:51.494Z,99163
2017-05-12T03:47:20.474Z,99169
2017-05-12T03:49:49.585Z,99167
2017-05-12T03:52:18.569Z,99163
2017-05-12T03:54:47.551Z,99166
2017-05-12T03:57:16.653Z,99176
2017-05-12T03:59:45.667Z,99176
2017-05-12T04:02:14.650Z,99178
2017-05-12T04:04:43.741Z,99169
2017-05-12T04:07:38.901Z,99176
2017-05-12T04:10:07.938Z,99176
2017-05-12T04:12:36.929Z,99179
2017-05-12T04:15:05.922Z,99183
2017-05-12T04:17:35.025Z,99178
2017-05-12T04:20:04.003Z,99173
2017-05-12T04:22:33.003Z,99178
2017-05-12T04:25:02.101Z,99176
2017-05-12T04:27:31.082Z,99173
2017-05-12T04:30:00.075Z,99170
2017-05-12T04:32:29.137Z,99164
2017-05-12T04:38:00.246Z,99174
2017-05-12T04:40:29.337Z,99175
2017-05-12T04:42:58.327Z,99171
2017-05-12T04:45:27.375Z,99171
2017-05-12T04:50:57.386Z,99175
2017-05-12T04:53:26.372Z,99172
2017-05-12T04:55:55.447Z,99177
2017-05-12T04:58:24.465Z,99184
2017-05-12T05:00:53.432Z,99183
2017-05-12T05:03:39.409Z,99190
2017-05-12T05:06:08.404Z,99189
2017-05-12T05:08:37.398Z,99198
2017-05-12T05:11:06.423Z,99199
2017-05-12T05:13:35.893Z,99197
2017-05-12T05:16:04.891Z,99201
2017-05-12T05:18:33.992Z,99203
2017-05-12T05:21:03.514Z,99201
2017-05-12T05:23:32.586Z,99202
2017-05-12T05:26:01.606Z,99206
2017-05-12T05:28:30.580Z,99198
2017-05-12T05:30:59.575Z,99202
2017-05-12T05:33:29.378Z,99203
2017-05-12T05:35:58.358Z,99209
2017-05-12T05:38:27.352Z,99208
2017-05-12T05:40:56.369Z,99219
2017-05-12T05:43:25.345Z,99210
2017-05-12T05:45:54.330Z,99210
2017-05-12T05:48:23.435Z,99210
2017-05-12T05:50:52.416Z,99205
2017-05-12T05:53:21.410Z,99204
2017-05-12T05:55:50.430Z,99207
2017-05-12T05:58:19.507Z,99208
2017-05-12T06:00:48.490Z,99209
2017-05-12T06:03:17.515Z,99204
2017-05-12T06:05:46.586Z,99210
2017-05-12T06:08:15.678Z,99207
2017-05-12T06:10:44.756Z,99207
2017-05-12T06:13:37.813Z,99200
2017-05-12T06:16:06.847Z,99202
2017-05-12T06:18:39.185Z,99206
2017-05-12T06:27:03.396Z,99204
2017-05-12T06:29:38.774Z,99207
2017-05-12T06:32:38.393Z,99197
2017-05-12T06:40:57.660Z,99198
2017-05-12T06:43:39.552Z,99203
2017-05-12T06:46:38.693Z,99200
2017-05-12T06:49:07.744Z,99200
2017-05-12T06:51:38.442Z,99199
2017-05-12T06:54:37.063Z,99196
2017-05-12T07:00:07.821Z,99210
2017-05-12T07:02:38.661Z,99205
2017-05-12T07:05:37.915Z,99203
2017-05-12T07:08:07.674Z,99205
2017-05-12T07:10:38.609Z,99204
2017-05-12T07:13:07.695Z,99206
2017-05-12T07:15:36.699Z,99202
2017-05-12T07:21:07.653Z,99211
2017-05-12T07:23:36.845Z,99209
2017-05-12T07:26:05.830Z,99214
2017-05-12T07:28:34.872Z,99215
2017-05-12T07:31:03.934Z,99214
2017-05-12T07:33:33.020Z,99213
2017-05-12T07:36:02.037Z,99212
2017-05-12T07:38:38.788Z,99211
2017-05-12T07:41:07.990Z,99211
2017-05-12T07:43:36.974Z,99219
2017-05-12T07:46:05.957Z,99213
2017-05-12T07:48:34.997Z,99215
2017-05-12T07:51:03.983Z,99216
2017-05-12T07:53:33.008Z,99220
2017-05-12T07:56:02.870Z,99221
2017-05-12T07:58:31.848Z,99221
2017-05-12T08:01:00.835Z,99216
2017-05-12T08:03:29.883Z,99215
2017-05-12T08:05:58.938Z,99214
2017-05-12T08:08:28.025Z,99218
2017-05-12T08:10:57.121Z,99219
2017-05-12T08:13:26.122Z,99216
2017-05-12T08:18:56.984Z,99225
2017-05-12T08:21:26.056Z,99227
2017-05-12T08:23:55.265Z,99225
2017-05-12T08:26:24.363Z,99221
2017-05-12T08:28:53.457Z,99220
2017-05-12T08:31:22.532Z,99226
2017-05-12T08:36:52.917Z,99233
2017-05-12T08:39:22.074Z,99224
2017-05-12T08:44:42.309Z,99224
2017-05-12T08:47:36.898Z,99232
2017-05-12T08:50:05.977Z,99234
2017-05-12T08:52:38.858Z,99239
2017-05-12T08:55:07.957Z,99238
2017-05-12T08:57:36.961Z,99235
2017-05-12T09:00:06.051Z,99236
2017-05-12T09:02:38.835Z,99243
2017-05-12T09:05:07.826Z,99237
2017-05-12T09:07:36.818Z,99245
2017-05-12T09:10:05.906Z,99243
2017-05-12T09:12:34.935Z,99238
2017-05-12T09:18:05.661Z,99249
2017-05-12T09:20:34.750Z,99242
2017-05-12T09:23:03.832Z,99242
2017-05-12T09:25:33.137Z,99242
2017-05-12T09:31:04.514Z,99235
2017-05-12T09:33:33.604Z,99246
2017-05-12T09:36:02.675Z,99249
2017-05-12T09:38:31.798Z,99251
2017-05-12T09:41:00.895Z,99259
2017-05-12T09:43:30.810Z,99254
2017-05-12T09:45:59.837Z,99261
2017-05-12T09:48:28.890Z,99253
2017-05-12T09:50:57.985Z,99244
2017-05-12T09:53:27.076Z,99256
2017-05-12T09:55:56.053Z,99264
2017-05-12T09:58:37.792Z,99256
2017-05-12T10:01:06.819Z,99259
2017-05-12T10:03:36.570Z,99258
2017-05-12T10:06:05.662Z,99257
2017-05-12T10:08:34.758Z,99258
2017-05-12T10:11:03.855Z,99259
2017-05-12T10:13:32.852Z,99254
2017-05-12T10:19:02.842Z,99265
2017-05-12T10:21:39.292Z,99259
2017-05-12T10:24:36.841Z,99263
2017-05-12T10:27:05.827Z,99264
2017-05-12T10:29:34.815Z,99270
2017-05-12T10:32:03.840Z,99266
2017-05-12T10:34:33.590Z,99265
2017-05-12T10:37:02.690Z,99261
2017-05-12T10:39:38.155Z,99262
2017-05-12T10:42:36.909Z,99272
2017-05-12T10:45:05.917Z,99272
2017-05-12T10:47:35.009Z,99270
2017-05-12T10:50:04.110Z,99266
2017-05-12T10:52:40.456Z,99271
2017-05-12T10:55:09.566Z,99276
2017-05-12T10:57:38.657Z,99273
2017-05-12T11:00:07.633Z,99271
2017-05-12T11:02:39.614Z,99270
2017-05-12T11:05:09.010Z,99276
2017-05-12T11:07:38.115Z,99267
2017-05-12T11:10:07.099Z,99273
2017-05-12T11:12:36.202Z,99276
2017-05-12T11:15:05.294Z,99276
2017-05-12T11:17:34.337Z,99272
2017-05-12T11:20:04.094Z,99273
2017-05-12T11:22:39.628Z,99285
2017-05-12T11:25:08.639Z,99282
2017-05-12T11:27:37.726Z,99281
2017-05-12T11:30:06.817Z,99280
2017-05-12T11:32:35.813Z,99283
2017-05-12T11:35:04.806Z,99282
2017-05-12T11:37:33.893Z,99276
2017-05-12T11:43:04.753Z,99267
2017-05-12T11:45:33.749Z,99266
2017-05-12T11:48:02.753Z,99262
2017-05-12T11:50:38.579Z,99263
2017-05-12T11:53:07.694Z,99264
2017-05-12T11:55:40.161Z,99266
2017-05-12T11:58:09.262Z,99267
2017-05-12T12:00:38.518Z,99255
2017-05-12T12:03:08.229Z,99252
2017-05-12T12:05:38.014Z,99256
2017-05-12T12:08:37.017Z,99260
2017-05-12T12:11:29.306Z,99250
2017-05-12T12:13:59.403Z,99259
2017-05-12T12:16:28.414Z,99257
2017-05-12T12:18:57.518Z,99259
2017-05-12T12:21:26.504Z,99259
2017-05-12T12:23:55.601Z,99256
2017-05-12T12:26:32.120Z,99254
2017-05-12T12:29:01.404Z,99254
2017-05-12T12:31:31.156Z,99249
2017-05-12T12:34:00.575Z,99255
2017-05-12T12:36:30.956Z,99258
2017-05-12T12:39:02.262Z,99264
2017-05-12T12:41:31.491Z,99260
2017-05-12T12:44:00.545Z,99267
2017-05-12T12:46:30.585Z,99265
2017-05-12T12:52:00.703Z,99265
2017-05-12T12:54:29.789Z,99259
2017-05-12T12:56:58.770Z,99263
2017-05-12T12:59:41.289Z,99268
2017-05-12T13:02:10.590Z,99259
2017-05-12T13:04:40.305Z,99259
2017-05-12T13:07:09.702Z,99262
2017-05-12T13:09:38.906Z,99264
2017-05-12T13:12:07.887Z,99255
2017-05-12T13:14:37.137Z,99254
2017-05-12T13:17:06.189Z,99254
2017-05-12T13:19:38.814Z,99247
2017-05-12T13:22:07.829Z,99248
2017-05-12T13:24:37.570Z,99251
2017-05-12T13:30:07.438Z,99248
2017-05-12T13:32:36.418Z,99244
2017-05-12T13:35:05.398Z,99246
2017-05-12T13:37:34.426Z,99254
2017-05-12T13:40:03.478Z,99246
2017-05-12T13:42:40.564Z,99248
2017-05-12T13:45:09.676Z,99247
2017-05-12T13:47:38.669Z,99252
2017-05-12T13:50:07.691Z,99249
2017-05-12T13:52:37.470Z,99249
2017-05-12T13:55:07.365Z,99245
2017-05-12T13:57:36.463Z,99254
2017-05-12T14:00:05.554Z,99255
2017-05-12T14:02:41.129Z,99257
2017-05-12T14:05:10.189Z,99251
2017-05-12T14:07:39.213Z,99243
2017-05-12T14:10:08.386Z,99252
2017-05-12T14:12:37.414Z,99248
2017-05-12T14:18:08.669Z,99255
2017-05-12T14:20:37.660Z,99254
2017-05-12T14:23:07.445Z,99254
2017-05-12T14:25:37.447Z,99262
2017-05-12T14:28:06.469Z,99258
2017-05-12T14:30:38.713Z,99262
2017-05-12T14:33:07.680Z,99261
2017-05-12T14:35:37.421Z,99253
2017-05-12T14:41:12.889Z,99257
2017-05-12T14:43:41.869Z,99252
2017-05-12T14:46:10.870Z,99258
2017-05-12T14:48:39.963Z,99259
2017-05-12T14:51:29.434Z,99263
2017-05-12T14:53:58.535Z,99267
2017-05-12T14:56:27.519Z,99267
2017-05-12T14:58:56.513Z,99270
2017-05-12T15:01:25.943Z,99266
2017-05-12T15:03:54.918Z,99262
2017-05-12T15:06:38.652Z,99270
2017-05-12T15:09:37.448Z,99266
2017-05-12T15:12:06.476Z,99279
2017-05-12T15:14:35.530Z,99270
2017-05-12T15:17:04.516Z,99268
2017-05-12T15:19:40.461Z,99266
2017-05-12T15:22:09.467Z,99263
2017-05-12T15:24:38.462Z,99269
2017-05-12T15:27:38.209Z,99262
2017-05-12T15:30:07.185Z,99270
2017-05-12T15:32:36.257Z,99268
2017-05-12T15:38:06.774Z,99262
2017-05-12T15:40:36.489Z,99259
2017-05-12T15:46:06.853Z,99262
2017-05-12T15:48:39.538Z,99267
2017-05-12T15:51:29.427Z,99267
2017-05-12T15:53:58.406Z,99263
2017-05-12T15:56:27.406Z,99257
2017-05-12T15:58:56.497Z,99265
2017-05-12T16:04:04.392Z,99265
2017-05-12T16:36:02.132Z,99211
2017-05-12T16:38:31.876Z,99211
2017-05-12T16:41:29.292Z,99210
2017-05-12T16:53:25.172Z,99219
2017-05-12T16:55:54.921Z,99237
2017-05-12T16:58:38.195Z,99235
2017-05-12T17:01:07.176Z,99230
2017-05-12T17:03:36.275Z,99241
2017-05-12T17:12:17.089Z,99244
2017-05-12T17:14:46.072Z,99245
2017-05-12T17:17:37.871Z,99254
2017-05-12T17:20:37.147Z,99257
2017-05-12T17:23:06.150Z,99252
2017-05-12T17:25:38.857Z,99250
2017-05-12T17:28:07.838Z,99258
2017-05-12T17:30:36.815Z,99261
2017-05-12T17:33:06.752Z,99267
2017-05-12T17:35:35.739Z,99271
2017-05-12T17:41:06.367Z,99267
2017-05-12T17:43:35.385Z,99265
2017-05-12T17:52:38.031Z,99285
2017-05-12T17:58:37.347Z,99281
2017-05-12T18:01:25.679Z,99283
2017-05-12T18:06:55.678Z,99288
2017-05-12T18:12:38.595Z,99309
2017-05-12T18:15:08.315Z,99309
2017-05-12T18:17:39.721Z,99315
2017-05-12T18:23:10.108Z,99325
2017-05-12T18:25:39.821Z,99328
2017-05-12T18:28:37.322Z,99326
2017-05-12T18:31:06.322Z,99335
2017-05-12T18:33:39.099Z,99328
2017-05-12T18:36:38.387Z,99341
2017-05-12T18:39:07.377Z,99353
2017-05-12T18:41:36.357Z,99348
2017-05-12T18:56:27.483Z,99358
2017-05-12T19:02:04.560Z,99376
2017-05-12T19:04:39.486Z,99381
2017-05-12T19:10:39.086Z,99398
2017-05-12T19:13:36.164Z,99394
2017-05-12T19:25:37.119Z,99402
2017-05-12T19:28:22.605Z,99410
2017-05-12T19:37:14.899Z,99424
2017-05-12T19:39:43.883Z,99424
2017-05-12T19:42:28.477Z,99420
2017-05-12T19:57:25.936Z,99439
2017-05-12T20:12:36.386Z,99463
2017-05-12T20:21:29.807Z,99462
2017-05-12T20:23:59.532Z,99464
2017-05-12T20:26:29.290Z,99466
2017-05-12T20:28:58.315Z,99476
2017-05-12T20:31:27.299Z,99468
2017-05-12T20:33:56.348Z,99465
2017-05-12T20:36:25.348Z,99471
2017-05-12T20:38:54.330Z,99474
2017-05-12T20:41:38.640Z,99471
2017-05-12T20:44:08.370Z,99477
2017-05-12T20:46:37.364Z,99475
2017-05-12T20:49:06.401Z,99473
2017-05-12T20:51:35.378Z,99475
2017-05-12T20:54:04.369Z,99473
2017-05-12T20:56:33.562Z,99474
2017-05-12T20:59:02.565Z,99475
2017-05-12T21:01:31.553Z,99482
2017-05-12T21:04:00.601Z,99483
2017-05-12T21:06:30.332Z,99486
2017-05-12T21:12:00.934Z,99500
2017-05-12T21:14:29.927Z,99499
2017-05-12T21:16:58.919Z,99502
2017-05-12T21:19:27.964Z,99511
2017-05-12T21:21:56.954Z,99514
2017-05-12T21:24:25.944Z,99511
2017-05-12T21:26:55.064Z,99517
2017-05-12T21:29:24.059Z,99520
2017-05-12T21:31:53.050Z,99518
2017-05-12T21:34:22.241Z,99524
2017-05-12T21:39:47.695Z,99528
2017-05-12T21:42:16.690Z,99522
2017-05-12T21:44:45.684Z,99527
2017-05-12T21:47:14.963Z,99517
2017-05-12T21:49:43.941Z,99530
2017-05-12T21:52:12.927Z,99529
2017-05-12T21:54:41.962Z,99530
2017-05-12T21:57:10.955Z,99524
2017-05-12T21:59:40.598Z,99522
2017-05-12T22:02:10.427Z,99519
2017-05-12T22:04:39.405Z,99528
2017-05-12T22:07:09.126Z,99532
2017-05-12T22:09:38.167Z,99529
2017-05-12T22:12:07.145Z,99528
2017-05-12T22:14:36.412Z,99522
2017-05-12T22:17:05.446Z,99513
2017-05-12T22:19:34.434Z,99512
2017-05-12T22:22:03.414Z,99520
2017-05-12T22:24:32.430Z,99524
2017-05-12T22:27:01.415Z,99527
2017-05-12T22:29:30.402Z,99524
2017-05-12T22:31:59.488Z,99526
2017-05-12T22:34:28.486Z,99527
2017-05-12T22:36:57.569Z,99527
2017-05-12T22:39:26.602Z,99530
2017-05-12T22:41:56.350Z,99521
2017-05-12T22:44:25.674Z,99513
2017-05-12T22:49:55.994Z,99515
2017-05-12T22:52:24.983Z,99513
2017-05-12T22:54:53.976Z,99520
2017-05-12T22:57:23.010Z,99521
2017-05-12T22:59:52.001Z,99512
2017-05-12T23:02:20.992Z,99503
2017-05-12T23:04:50.013Z,99511
2017-05-12T23:07:19.008Z,99514
2017-05-12T23:09:47.989Z,99516
2017-05-12T23:12:17.006Z,99523
2017-05-12T23:17:39.536Z,99523
2017-05-12T23:20:08.525Z,99525
2017-05-12T23:22:37.512Z,99524
2017-05-12T23:25:06.521Z,99526
2017-05-12T23:27:41.359Z,99529
2017-05-12T23:30:10.394Z,99526
2017-05-12T23:32:39.371Z,99527
2017-05-12T23:35:08.362Z,99532
2017-05-12T23:37:37.389Z,99536
2017-05-12T23:40:06.380Z,99533
2017-05-12T23:42:35.363Z,99531
2017-05-12T23:45:04.464Z,99524
2017-05-12T23:47:33.454Z,99522
2017-05-12T23:50:02.433Z,99528
2017-05-12T23:52:39.431Z,99521
2017-05-12T23:55:38.014Z,99523
